sensor_id;sensor_type;location;lat;lon;timestamp;pressure;altitude;pressure_sealevel;temperature;humidity
20009;BME280;10165;42.662;23.260;2023-07-09T00:02:19;94583.34;;;22.53;44.52
20009;BME280;10165;42.662;23.260;2023-07-09T00:04:46;94579.66;;;22.36;45.28
20009;BME280;10165;42.662;23.260;2023-07-09T00:07:38;94574.34;;;22.25;44.95
20009;BME280;10165;42.662;23.260;2023-07-09T00:10:05;94576.97;;;21.54;47.17
20009;BME280;10165;42.662;23.260;2023-07-09T00:12:35;94576.25;;;21.95;46.19
20009;BME280;10165;42.662;23.260;2023-07-09T00:15:02;94569.00;;;21.77;47.30
20009;BME280;10165;42.662;23.260;2023-07-09T00:17:32;94571.97;;;21.90;45.30
20009;BME280;10165;42.662;23.260;2023-07-09T00:20:03;94571.84;;;22.08;45.85
20009;BME280;10165;42.662;23.260;2023-07-09T00:22:41;94571.63;;;21.88;46.43
20009;BME280;10165;42.662;23.260;2023-07-09T00:25:10;94570.44;;;21.89;45.23
20009;BME280;10165;42.662;23.260;2023-07-09T00:27:43;94570.97;;;21.77;46.86
20009;BME280;10165;42.662;23.260;2023-07-09T00:30:22;94569.13;;;22.08;45.71
20009;BME280;10165;42.662;23.260;2023-07-09T00:32:50;94566.63;;;22.20;44.59
20009;BME280;10165;42.662;23.260;2023-07-09T00:35:19;94568.38;;;22.00;45.83
20009;BME280;10165;42.662;23.260;2023-07-09T00:37:46;94577.38;;;21.56;47.76
20009;BME280;10165;42.662;23.260;2023-07-09T00:40:18;94566.13;;;21.95;46.05
20009;BME280;10165;42.662;23.260;2023-07-09T00:42:49;94563.16;;;22.16;45.18
20009;BME280;10165;42.662;23.260;2023-07-09T00:45:22;94561.91;;;22.24;44.81
20009;BME280;10165;42.662;23.260;2023-07-09T00:47:59;94565.16;;;22.12;45.65
20009;BME280;10165;42.662;23.260;2023-07-09T00:50:38;94556.81;;;21.89;45.72
20009;BME280;10165;42.662;23.260;2023-07-09T00:53:24;94554.34;;;22.05;45.29
20009;BME280;10165;42.662;23.260;2023-07-09T00:56:00;94546.16;;;22.09;45.08
20009;BME280;10165;42.662;23.260;2023-07-09T00:58:32;94552.16;;;21.89;45.83
20009;BME280;10165;42.662;23.260;2023-07-09T01:01:04;94549.06;;;21.91;45.04
20009;BME280;10165;42.662;23.260;2023-07-09T01:03:40;94557.63;;;21.86;45.15
20009;BME280;10165;42.662;23.260;2023-07-09T01:06:09;94552.88;;;21.97;45.39
20009;BME280;10165;42.662;23.260;2023-07-09T01:08:39;94548.31;;;21.87;45.34
20009;BME280;10165;42.662;23.260;2023-07-09T01:11:17;94545.09;;;21.99;44.93
20009;BME280;10165;42.662;23.260;2023-07-09T01:14:15;94542.72;;;22.01;44.96
20009;BME280;10165;42.662;23.260;2023-07-09T01:17:09;94543.34;;;22.16;43.93
20009;BME280;10165;42.662;23.260;2023-07-09T01:19:43;94540.00;;;22.01;44.55
20009;BME280;10165;42.662;23.260;2023-07-09T01:22:13;94531.63;;;22.22;44.21
20009;BME280;10165;42.662;23.260;2023-07-09T01:27:21;94542.19;;;21.79;45.44
20009;BME280;10165;42.662;23.260;2023-07-09T01:29:48;94530.88;;;21.81;45.82
20009;BME280;10165;42.662;23.260;2023-07-09T01:32:18;94527.22;;;21.98;44.67
20009;BME280;10165;42.662;23.260;2023-07-09T01:34:53;94531.22;;;22.20;44.17
20009;BME280;10165;42.662;23.260;2023-07-09T01:37:25;94531.22;;;21.86;45.64
20009;BME280;10165;42.662;23.260;2023-07-09T01:39:52;94529.59;;;21.55;46.63
20009;BME280;10165;42.662;23.260;2023-07-09T01:42:21;94537.13;;;21.40;46.04
20009;BME280;10165;42.662;23.260;2023-07-09T01:44:50;94541.28;;;21.89;44.88
20009;BME280;10165;42.662;23.260;2023-07-09T01:47:17;94548.59;;;21.59;46.51
20009;BME280;10165;42.662;23.260;2023-07-09T01:49:45;94552.03;;;21.22;47.39
20009;BME280;10165;42.662;23.260;2023-07-09T01:52:15;94549.91;;;21.43;46.54
20009;BME280;10165;42.662;23.260;2023-07-09T01:54:43;94548.41;;;21.80;45.52
20009;BME280;10165;42.662;23.260;2023-07-09T01:57:23;94543.69;;;20.95;47.73
20009;BME280;10165;42.662;23.260;2023-07-09T01:59:52;94550.16;;;21.08;46.95
20009;BME280;10165;42.662;23.260;2023-07-09T02:02:22;94552.94;;;21.53;45.83
20009;BME280;10165;42.662;23.260;2023-07-09T02:04:51;94546.53;;;21.70;45.51
20009;BME280;10165;42.662;23.260;2023-07-09T02:07:19;94551.91;;;21.36;45.98
20009;BME280;10165;42.662;23.260;2023-07-09T02:09:47;94550.00;;;21.74;45.32
20009;BME280;10165;42.662;23.260;2023-07-09T02:12:14;94549.09;;;21.87;45.09
20009;BME280;10165;42.662;23.260;2023-07-09T02:14:43;94551.19;;;22.10;44.30
20009;BME280;10165;42.662;23.260;2023-07-09T02:17:11;94543.91;;;22.00;44.47
20009;BME280;10165;42.662;23.260;2023-07-09T02:19:38;94544.13;;;21.79;45.16
20009;BME280;10165;42.662;23.260;2023-07-09T02:22:06;94544.97;;;21.31;46.22
20009;BME280;10165;42.662;23.260;2023-07-09T02:24:34;94554.84;;;21.56;45.67
20009;BME280;10165;42.662;23.260;2023-07-09T02:27:03;94545.78;;;21.66;45.46
20009;BME280;10165;42.662;23.260;2023-07-09T02:29:32;94542.94;;;21.80;45.47
20009;BME280;10165;42.662;23.260;2023-07-09T02:32:00;94560.03;;;21.80;45.23
20009;BME280;10165;42.662;23.260;2023-07-09T02:34:28;94555.44;;;21.74;45.50
20009;BME280;10165;42.662;23.260;2023-07-09T02:36:56;94550.53;;;21.62;45.95
20009;BME280;10165;42.662;23.260;2023-07-09T02:39:24;94558.41;;;21.49;45.97
20009;BME280;10165;42.662;23.260;2023-07-09T02:41:51;94565.97;;;21.24;47.04
20009;BME280;10165;42.662;23.260;2023-07-09T02:44:18;94568.66;;;21.31;46.77
20009;BME280;10165;42.662;23.260;2023-07-09T02:46:45;94574.03;;;21.38;46.25
20009;BME280;10165;42.662;23.260;2023-07-09T02:49:13;94569.47;;;21.24;46.75
20009;BME280;10165;42.662;23.260;2023-07-09T02:51:41;94574.88;;;21.28;46.33
20009;BME280;10165;42.662;23.260;2023-07-09T02:54:07;94575.69;;;21.25;46.66
20009;BME280;10165;42.662;23.260;2023-07-09T02:56:34;94579.50;;;20.76;48.05
20009;BME280;10165;42.662;23.260;2023-07-09T02:59:01;94584.06;;;20.89;47.92
20009;BME280;10165;42.662;23.260;2023-07-09T03:01:30;94582.88;;;20.94;47.13
20009;BME280;10165;42.662;23.260;2023-07-09T03:03:59;94580.47;;;21.07;47.88
20009;BME280;10165;42.662;23.260;2023-07-09T03:06:26;94591.88;;;20.84;48.47
20009;BME280;10165;42.662;23.260;2023-07-09T03:08:53;94583.34;;;20.82;48.33
20009;BME280;10165;42.662;23.260;2023-07-09T03:11:21;94589.78;;;21.06;47.22
20009;BME280;10165;42.662;23.260;2023-07-09T03:13:48;94587.81;;;21.13;47.74
20009;BME280;10165;42.662;23.260;2023-07-09T03:16:15;94588.69;;;20.96;48.23
20009;BME280;10165;42.662;23.260;2023-07-09T03:18:43;94590.31;;;20.83;48.12
20009;BME280;10165;42.662;23.260;2023-07-09T03:21:09;94598.38;;;20.97;47.97
20009;BME280;10165;42.662;23.260;2023-07-09T03:23:41;94593.72;;;20.97;47.60
20009;BME280;10165;42.662;23.260;2023-07-09T03:26:08;94589.97;;;21.36;46.89
20009;BME280;10165;42.662;23.260;2023-07-09T03:28:35;94592.34;;;21.30;47.10
20009;BME280;10165;42.662;23.260;2023-07-09T03:31:01;94592.72;;;21.32;46.83
20009;BME280;10165;42.662;23.260;2023-07-09T03:33:28;94587.78;;;21.17;47.73
20009;BME280;10165;42.662;23.260;2023-07-09T03:35:55;94599.56;;;20.92;48.53
20009;BME280;10165;42.662;23.260;2023-07-09T03:38:22;94595.88;;;21.24;47.79
20009;BME280;10165;42.662;23.260;2023-07-09T03:40:51;94598.38;;;21.52;47.04
20009;BME280;10165;42.662;23.260;2023-07-09T03:43:18;94591.38;;;21.51;48.10
20009;BME280;10165;42.662;23.260;2023-07-09T03:45:45;94589.28;;;21.25;48.51
20009;BME280;10165;42.662;23.260;2023-07-09T03:51:03;94595.13;;;21.68;48.08
20009;BME280;10165;42.662;23.260;2023-07-09T03:53:30;94599.81;;;21.64;48.41
20009;BME280;10165;42.662;23.260;2023-07-09T03:55:57;94600.84;;;21.80;48.86
20009;BME280;10165;42.662;23.260;2023-07-09T03:58:24;94599.81;;;21.64;47.87
20009;BME280;10165;42.662;23.260;2023-07-09T04:00:53;94598.50;;;21.79;48.91
20009;BME280;10165;42.662;23.260;2023-07-09T04:03:47;94598.19;;;21.70;49.43
20009;BME280;10165;42.662;23.260;2023-07-09T04:06:13;94612.75;;;21.53;48.34
20009;BME280;10165;42.662;23.260;2023-07-09T04:09:05;94612.88;;;21.79;47.81
20009;BME280;10165;42.662;23.260;2023-07-09T04:11:34;94608.84;;;21.98;48.26
20009;BME280;10165;42.662;23.260;2023-07-09T04:14:00;94610.41;;;21.99;47.95
20009;BME280;10165;42.662;23.260;2023-07-09T04:16:51;94621.34;;;21.92;47.92
20009;BME280;10165;42.662;23.260;2023-07-09T04:19:17;94611.25;;;21.85;48.30
20009;BME280;10165;42.662;23.260;2023-07-09T04:21:44;94619.03;;;21.87;48.07
20009;BME280;10165;42.662;23.260;2023-07-09T04:24:11;94620.34;;;22.13;47.10
20009;BME280;10165;42.662;23.260;2023-07-09T04:26:37;94620.69;;;22.18;46.69
20009;BME280;10165;42.662;23.260;2023-07-09T04:29:05;94620.16;;;22.30;47.23
20009;BME280;10165;42.662;23.260;2023-07-09T04:31:32;94620.84;;;22.38;45.69
20009;BME280;10165;42.662;23.260;2023-07-09T04:33:59;94620.25;;;22.20;47.03
20009;BME280;10165;42.662;23.260;2023-07-09T04:36:26;94624.63;;;22.14;47.83
20009;BME280;10165;42.662;23.260;2023-07-09T04:38:57;94627.59;;;22.26;48.52
20009;BME280;10165;42.662;23.260;2023-07-09T04:41:23;94627.13;;;22.31;48.80
20009;BME280;10165;42.662;23.260;2023-07-09T04:43:50;94625.97;;;22.32;46.69
20009;BME280;10165;42.662;23.260;2023-07-09T04:46:17;94615.53;;;22.58;46.52
20009;BME280;10165;42.662;23.260;2023-07-09T04:48:44;94625.91;;;22.70;46.51
20009;BME280;10165;42.662;23.260;2023-07-09T04:51:11;94621.53;;;22.79;46.35
20009;BME280;10165;42.662;23.260;2023-07-09T04:53:38;94619.69;;;22.73;46.15
20009;BME280;10165;42.662;23.260;2023-07-09T04:56:04;94625.81;;;22.77;46.30
20009;BME280;10165;42.662;23.260;2023-07-09T04:58:33;94623.81;;;22.81;46.59
20009;BME280;10165;42.662;23.260;2023-07-09T05:01:00;94620.75;;;22.79;45.98
20009;BME280;10165;42.662;23.260;2023-07-09T05:03:50;94627.53;;;22.64;46.86
20009;BME280;10165;42.662;23.260;2023-07-09T05:06:17;94634.53;;;22.68;46.57
20009;BME280;10165;42.662;23.260;2023-07-09T05:08:44;94632.97;;;22.64;46.92
20009;BME280;10165;42.662;23.260;2023-07-09T05:11:11;94637.34;;;22.92;46.07
20009;BME280;10165;42.662;23.260;2023-07-09T05:13:37;94642.69;;;22.99;45.36
20009;BME280;10165;42.662;23.260;2023-07-09T05:16:04;94644.66;;;22.64;45.86
20009;BME280;10165;42.662;23.260;2023-07-09T05:18:55;94647.50;;;22.88;45.76
20009;BME280;10165;42.662;23.260;2023-07-09T05:21:21;94646.41;;;23.08;44.09
20009;BME280;10165;42.662;23.260;2023-07-09T05:23:51;94650.63;;;22.86;44.92
20009;BME280;10165;42.662;23.260;2023-07-09T05:26:18;94640.88;;;22.55;45.86
20009;BME280;10165;42.662;23.260;2023-07-09T05:28:45;94640.53;;;23.13;45.12
20009;BME280;10165;42.662;23.260;2023-07-09T05:31:11;94651.53;;;22.76;45.25
20009;BME280;10165;42.662;23.260;2023-07-09T05:33:39;94653.22;;;23.23;45.42
20009;BME280;10165;42.662;23.260;2023-07-09T05:36:06;94651.38;;;23.17;45.12
20009;BME280;10165;42.662;23.260;2023-07-09T05:38:58;94647.78;;;23.50;45.45
20009;BME280;10165;42.662;23.260;2023-07-09T05:41:25;94642.13;;;23.38;44.76
20009;BME280;10165;42.662;23.260;2023-07-09T05:43:52;94639.34;;;23.41;45.00
20009;BME280;10165;42.662;23.260;2023-07-09T05:46:22;94647.41;;;22.95;45.52
20009;BME280;10165;42.662;23.260;2023-07-09T05:49:14;94641.28;;;22.87;45.01
20009;BME280;10165;42.662;23.260;2023-07-09T05:51:41;94649.91;;;22.82;44.94
20009;BME280;10165;42.662;23.260;2023-07-09T05:54:08;94644.75;;;22.57;45.56
20009;BME280;10165;42.662;23.260;2023-07-09T05:56:35;94639.97;;;23.25;44.84
20009;BME280;10165;42.662;23.260;2023-07-09T05:59:02;94642.13;;;23.38;44.51
20009;BME280;10165;42.662;23.260;2023-07-09T06:01:52;94646.72;;;22.87;45.36
20009;BME280;10165;42.662;23.260;2023-07-09T06:04:19;94640.63;;;23.60;44.37
20009;BME280;10165;42.662;23.260;2023-07-09T06:06:46;94645.25;;;23.63;44.51
20009;BME280;10165;42.662;23.260;2023-07-09T06:09:13;94646.69;;;23.17;44.08
20009;BME280;10165;42.662;23.260;2023-07-09T06:11:41;94645.72;;;23.58;44.09
20009;BME280;10165;42.662;23.260;2023-07-09T06:14:08;94641.72;;;24.09;44.48
20009;BME280;10165;42.662;23.260;2023-07-09T06:16:36;94642.75;;;23.95;43.96
20009;BME280;10165;42.662;23.260;2023-07-09T06:19:03;94643.03;;;23.54;43.65
20009;BME280;10165;42.662;23.260;2023-07-09T06:21:30;94628.84;;;23.40;44.41
20009;BME280;10165;42.662;23.260;2023-07-09T06:23:57;94630.34;;;23.44;44.35
20009;BME280;10165;42.662;23.260;2023-07-09T06:26:23;94637.31;;;23.49;44.01
20009;BME280;10165;42.662;23.260;2023-07-09T06:28:50;94624.53;;;23.42;46.37
20009;BME280;10165;42.662;23.260;2023-07-09T06:31:17;94638.31;;;23.81;44.53
20009;BME280;10165;42.662;23.260;2023-07-09T06:33:45;94635.94;;;23.60;44.39
20009;BME280;10165;42.662;23.260;2023-07-09T06:36:12;94635.41;;;23.15;44.06
20009;BME280;10165;42.662;23.260;2023-07-09T06:38:39;94647.06;;;22.89;45.81
20009;BME280;10165;42.662;23.260;2023-07-09T06:41:05;94635.94;;;23.33;45.01
20009;BME280;10165;42.662;23.260;2023-07-09T06:43:32;94642.06;;;22.88;44.63
20009;BME280;10165;42.662;23.260;2023-07-09T06:46:00;94632.22;;;22.94;44.90
20009;BME280;10165;42.662;23.260;2023-07-09T06:48:29;94631.84;;;23.49;44.59
20009;BME280;10165;42.662;23.260;2023-07-09T06:50:57;94630.81;;;22.82;44.60
20009;BME280;10165;42.662;23.260;2023-07-09T06:53:25;94631.78;;;23.75;44.52
20009;BME280;10165;42.662;23.260;2023-07-09T06:55:53;94629.97;;;24.12;43.44
20009;BME280;10165;42.662;23.260;2023-07-09T06:58:22;94631.00;;;24.21;43.75
20009;BME280;10165;42.662;23.260;2023-07-09T07:00:52;94621.66;;;23.99;42.67
20009;BME280;10165;42.662;23.260;2023-07-09T07:03:18;94625.69;;;24.14;41.99
20009;BME280;10165;42.662;23.260;2023-07-09T07:05:47;94630.31;;;23.94;42.59
20009;BME280;10165;42.662;23.260;2023-07-09T07:08:17;94636.34;;;23.59;43.02
20009;BME280;10165;42.662;23.260;2023-07-09T07:10:45;94631.47;;;23.93;41.69
20009;BME280;10165;42.662;23.260;2023-07-09T07:13:13;94621.72;;;23.72;43.02
20009;BME280;10165;42.662;23.260;2023-07-09T07:15:40;94628.56;;;23.57;42.74
20009;BME280;10165;42.662;23.260;2023-07-09T07:18:08;94622.25;;;23.87;42.42
20009;BME280;10165;42.662;23.260;2023-07-09T07:20:35;94615.94;;;23.44;42.17
20009;BME280;10165;42.662;23.260;2023-07-09T07:23:02;94619.41;;;24.37;42.94
20009;BME280;10165;42.662;23.260;2023-07-09T07:25:32;94621.44;;;24.10;42.23
20009;BME280;10165;42.662;23.260;2023-07-09T07:27:59;94616.53;;;24.44;41.51
20009;BME280;10165;42.662;23.260;2023-07-09T07:30:26;94613.50;;;24.58;41.88
20009;BME280;10165;42.662;23.260;2023-07-09T07:32:57;94610.63;;;24.85;42.00
20009;BME280;10165;42.662;23.260;2023-07-09T07:35:24;94614.91;;;24.47;42.01
20009;BME280;10165;42.662;23.260;2023-07-09T07:37:51;94614.34;;;24.36;41.08
20009;BME280;10165;42.662;23.260;2023-07-09T07:40:17;94612.09;;;23.88;42.18
20009;BME280;10165;42.662;23.260;2023-07-09T07:42:44;94609.72;;;24.33;41.78
20009;BME280;10165;42.662;23.260;2023-07-09T07:45:12;94605.06;;;24.69;42.41
20009;BME280;10165;42.662;23.260;2023-07-09T07:47:39;94607.56;;;24.63;41.87
20009;BME280;10165;42.662;23.260;2023-07-09T07:50:06;94605.84;;;24.89;41.76
20009;BME280;10165;42.662;23.260;2023-07-09T07:52:57;94621.66;;;23.99;42.72
20009;BME280;10165;42.662;23.260;2023-07-09T07:55:24;94616.28;;;24.15;43.49
20009;BME280;10165;42.662;23.260;2023-07-09T07:57:51;94612.03;;;24.14;42.14
20009;BME280;10165;42.662;23.260;2023-07-09T08:00:17;94605.75;;;24.57;42.70
20009;BME280;10165;42.662;23.260;2023-07-09T08:02:44;94606.78;;;24.43;42.75
20009;BME280;10165;42.662;23.260;2023-07-09T08:05:11;94602.56;;;24.58;41.64
20009;BME280;10165;42.662;23.260;2023-07-09T08:07:38;94586.69;;;25.41;41.04
20009;BME280;10165;42.662;23.260;2023-07-09T08:10:05;94599.00;;;24.61;42.34
20009;BME280;10165;42.662;23.260;2023-07-09T08:12:32;94601.31;;;24.63;42.55
20009;BME280;10165;42.662;23.260;2023-07-09T08:14:59;94597.56;;;24.73;41.79
20009;BME280;10165;42.662;23.260;2023-07-09T08:17:26;94595.91;;;25.15;41.61
20009;BME280;10165;42.662;23.260;2023-07-09T08:19:53;94591.91;;;25.19;41.11
20009;BME280;10165;42.662;23.260;2023-07-09T08:22:21;94587.06;;;25.76;40.31
20009;BME280;10165;42.662;23.260;2023-07-09T08:24:49;94592.34;;;25.50;41.27
20009;BME280;10165;42.662;23.260;2023-07-09T08:27:16;94589.81;;;25.07;41.77
20009;BME280;10165;42.662;23.260;2023-07-09T08:29:43;94587.38;;;25.45;40.99
20009;BME280;10165;42.662;23.260;2023-07-09T08:32:11;94584.06;;;25.21;41.01
20009;BME280;10165;42.662;23.260;2023-07-09T08:34:39;94594.06;;;24.92;41.15
20009;BME280;10165;42.662;23.260;2023-07-09T08:37:26;94589.22;;;25.00;41.35
20009;BME280;10165;42.662;23.260;2023-07-09T08:39:53;94594.16;;;25.57;40.02
20009;BME280;10165;42.662;23.260;2023-07-09T08:42:26;94592.00;;;25.48;40.66
20009;BME280;10165;42.662;23.260;2023-07-09T08:45:32;94593.41;;;25.56;40.85
20009;BME280;10165;42.662;23.260;2023-07-09T08:48:05;94592.94;;;25.26;41.22
20009;BME280;10165;42.662;23.260;2023-07-09T08:51:06;94591.84;;;25.55;40.72
20009;BME280;10165;42.662;23.260;2023-07-09T08:53:49;94589.09;;;25.39;40.44
20009;BME280;10165;42.662;23.260;2023-07-09T08:56:17;94588.09;;;24.97;41.41
20009;BME280;10165;42.662;23.260;2023-07-09T08:58:46;94595.28;;;25.07;42.12
20009;BME280;10165;42.662;23.260;2023-07-09T09:01:50;94590.03;;;25.65;40.33
20009;BME280;10165;42.662;23.260;2023-07-09T09:04:36;94589.81;;;25.59;40.34
20009;BME280;10165;42.662;23.260;2023-07-09T09:07:16;94583.97;;;25.74;41.35
20009;BME280;10165;42.662;23.260;2023-07-09T09:10:03;94592.25;;;26.31;39.90
20009;BME280;10165;42.662;23.260;2023-07-09T09:13:00;94591.28;;;26.09;38.71
20009;BME280;10165;42.662;23.260;2023-07-09T09:15:52;94601.06;;;25.61;40.66
20009;BME280;10165;42.662;23.260;2023-07-09T09:18:22;94587.25;;;26.13;39.44
20009;BME280;10165;42.662;23.260;2023-07-09T09:21:20;94588.06;;;26.27;40.36
20009;BME280;10165;42.662;23.260;2023-07-09T09:23:51;94587.47;;;25.26;40.29
20009;BME280;10165;42.662;23.260;2023-07-09T09:26:34;94591.22;;;25.15;40.64
20009;BME280;10165;42.662;23.260;2023-07-09T09:29:11;94590.94;;;25.26;41.05
20009;BME280;10165;42.662;23.260;2023-07-09T09:31:37;94588.69;;;25.57;41.18
20009;BME280;10165;42.662;23.260;2023-07-09T09:34:05;94594.22;;;24.85;39.74
20009;BME280;10165;42.662;23.260;2023-07-09T09:36:58;94588.84;;;25.66;40.21
20009;BME280;10165;42.662;23.260;2023-07-09T09:39:26;94590.16;;;26.06;40.53
20009;BME280;10165;42.662;23.260;2023-07-09T09:41:57;94589.22;;;25.68;39.93
20009;BME280;10165;42.662;23.260;2023-07-09T09:44:27;94579.28;;;26.03;39.06
20009;BME280;10165;42.662;23.260;2023-07-09T09:46:57;94590.03;;;25.49;39.99
20009;BME280;10165;42.662;23.260;2023-07-09T09:49:26;94578.66;;;24.82;40.46
20009;BME280;10165;42.662;23.260;2023-07-09T09:51:54;94577.38;;;25.22;40.45
20009;BME280;10165;42.662;23.260;2023-07-09T09:54:27;94572.09;;;25.48;40.35
20009;BME280;10165;42.662;23.260;2023-07-09T09:56:54;94566.16;;;25.82;39.38
20009;BME280;10165;42.662;23.260;2023-07-09T09:59:29;94572.22;;;25.89;40.17
20009;BME280;10165;42.662;23.260;2023-07-09T10:02:05;94573.50;;;25.85;38.63
20009;BME280;10165;42.662;23.260;2023-07-09T10:04:40;94570.38;;;25.70;39.31
20009;BME280;10165;42.662;23.260;2023-07-09T10:07:08;94563.53;;;25.62;40.49
20009;BME280;10165;42.662;23.260;2023-07-09T10:09:53;94566.66;;;25.93;39.62
20009;BME280;10165;42.662;23.260;2023-07-09T10:20:45;94555.72;;;25.93;39.30
20009;BME280;10165;42.662;23.260;2023-07-09T10:23:39;94565.22;;;25.72;39.95
20009;BME280;10165;42.662;23.260;2023-07-09T10:26:14;94552.44;;;25.53;38.93
20009;BME280;10165;42.662;23.260;2023-07-09T10:40:16;94546.75;;;26.21;38.15
20009;BME280;10165;42.662;23.260;2023-07-09T10:42:50;94562.00;;;25.29;37.38
20009;BME280;10165;42.662;23.260;2023-07-09T10:45:29;94548.00;;;25.59;38.14
20009;BME280;10165;42.662;23.260;2023-07-09T10:48:08;94544.47;;;26.03;38.27
20009;BME280;10165;42.662;23.260;2023-07-09T10:50:46;94545.69;;;26.85;37.67
20009;BME280;10165;42.662;23.260;2023-07-09T10:53:33;94543.72;;;26.86;36.70
20009;BME280;10165;42.662;23.260;2023-07-09T10:56:09;94548.28;;;26.63;35.59
20009;BME280;10165;42.662;23.260;2023-07-09T10:58:50;94556.34;;;26.42;35.69
20009;BME280;10165;42.662;23.260;2023-07-09T11:01:27;94562.47;;;26.33;36.05
20009;BME280;10165;42.662;23.260;2023-07-09T11:04:00;94554.13;;;26.08;36.39
20009;BME280;10165;42.662;23.260;2023-07-09T11:06:35;94550.13;;;26.54;35.38
20009;BME280;10165;42.662;23.260;2023-07-09T11:09:17;94538.97;;;26.74;36.07
20009;BME280;10165;42.662;23.260;2023-07-09T11:11:50;94536.78;;;26.81;35.75
20009;BME280;10165;42.662;23.260;2023-07-09T11:14:33;94540.72;;;26.55;35.89
20009;BME280;10165;42.662;23.260;2023-07-09T11:17:02;94546.44;;;26.98;36.21
20009;BME280;10165;42.662;23.260;2023-07-09T11:19:56;94547.44;;;26.79;35.09
20009;BME280;10165;42.662;23.260;2023-07-09T11:22:38;94545.66;;;26.73;35.35
20009;BME280;10165;42.662;23.260;2023-07-09T11:25:14;94538.63;;;26.72;36.12
20009;BME280;10165;42.662;23.260;2023-07-09T11:27:53;94547.13;;;27.02;35.65
20009;BME280;10165;42.662;23.260;2023-07-09T11:30:28;94541.19;;;26.37;35.93
20009;BME280;10165;42.662;23.260;2023-07-09T11:33:03;94538.28;;;26.57;35.82
20009;BME280;10165;42.662;23.260;2023-07-09T11:36:11;94536.66;;;26.59;35.38
20009;BME280;10165;42.662;23.260;2023-07-09T11:38:46;94540.22;;;26.98;35.13
20009;BME280;10165;42.662;23.260;2023-07-09T11:43:52;94528.75;;;26.61;36.32
20009;BME280;10165;42.662;23.260;2023-07-09T11:46:22;94530.63;;;26.77;36.01
20009;BME280;10165;42.662;23.260;2023-07-09T11:48:55;94529.28;;;26.44;33.83
20009;BME280;10165;42.662;23.260;2023-07-09T11:51:46;94534.69;;;26.19;36.02
20009;BME280;10165;42.662;23.260;2023-07-09T11:54:18;94531.09;;;26.88;35.28
20009;BME280;10165;42.662;23.260;2023-07-09T11:56:56;94521.88;;;27.07;35.66
20009;BME280;10165;42.662;23.260;2023-07-09T11:59:24;94526.13;;;27.34;35.37
20009;BME280;10165;42.662;23.260;2023-07-09T12:01:52;94519.81;;;26.99;34.60
20009;BME280;10165;42.662;23.260;2023-07-09T12:04:25;94525.63;;;27.14;35.00
20009;BME280;10165;42.662;23.260;2023-07-09T12:06:58;94525.16;;;27.28;34.99
20009;BME280;10165;42.662;23.260;2023-07-09T12:09:32;94518.31;;;27.92;34.17
20009;BME280;10165;42.662;23.260;2023-07-09T12:11:58;94512.75;;;28.39;34.40
20009;BME280;10165;42.662;23.260;2023-07-09T12:14:25;94521.94;;;28.23;34.82
20009;BME280;10165;42.662;23.260;2023-07-09T12:16:54;94525.28;;;28.40;33.92
20009;BME280;10165;42.662;23.260;2023-07-09T12:19:22;94521.50;;;27.56;34.08
20009;BME280;10165;42.662;23.260;2023-07-09T12:21:53;94527.69;;;27.47;35.25
20009;BME280;10165;42.662;23.260;2023-07-09T12:24:27;94516.47;;;27.89;34.08
20009;BME280;10165;42.662;23.260;2023-07-09T12:27:00;94520.41;;;27.66;34.73
20009;BME280;10165;42.662;23.260;2023-07-09T12:29:54;94513.06;;;27.38;34.10
20009;BME280;10165;42.662;23.260;2023-07-09T12:32:22;94508.94;;;27.68;34.88
20009;BME280;10165;42.662;23.260;2023-07-09T12:34:55;94513.22;;;27.81;35.52
20009;BME280;10165;42.662;23.260;2023-07-09T12:37:24;94513.22;;;26.84;35.99
20009;BME280;10165;42.662;23.260;2023-07-09T12:40:28;94511.38;;;26.93;35.00
20009;BME280;10165;42.662;23.260;2023-07-09T12:42:55;94507.16;;;27.27;34.47
20009;BME280;10165;42.662;23.260;2023-07-09T12:45:24;94505.03;;;27.56;34.19
20009;BME280;10165;42.662;23.260;2023-07-09T12:47:51;94507.47;;;27.54;35.01
20009;BME280;10165;42.662;23.260;2023-07-09T12:52:49;94502.34;;;27.18;35.64
20009;BME280;10165;42.662;23.260;2023-07-09T12:55:24;94498.94;;;27.27;34.97
20009;BME280;10165;42.662;23.260;2023-07-09T12:57:56;94501.13;;;27.32;35.18
20009;BME280;10165;42.662;23.260;2023-07-09T13:00:29;94504.78;;;27.03;35.88
20009;BME280;10165;42.662;23.260;2023-07-09T13:02:58;94493.84;;;27.63;35.33
20009;BME280;10165;42.662;23.260;2023-07-09T13:05:26;94492.31;;;27.49;34.93
20009;BME280;10165;42.662;23.260;2023-07-09T13:08:17;94504.06;;;27.84;35.55
20009;BME280;10165;42.662;23.260;2023-07-09T13:10:45;94495.19;;;27.80;34.56
20009;BME280;10165;42.662;23.260;2023-07-09T13:13:13;94499.44;;;28.37;35.99
20009;BME280;10165;42.662;23.260;2023-07-09T13:15:48;94498.88;;;28.21;34.89
20009;BME280;10165;42.662;23.260;2023-07-09T13:18:15;94495.09;;;28.06;35.71
20009;BME280;10165;42.662;23.260;2023-07-09T13:20:45;94495.06;;;27.49;35.19
20009;BME280;10165;42.662;23.260;2023-07-09T13:23:37;94495.19;;;28.02;36.19
20009;BME280;10165;42.662;23.260;2023-07-09T13:26:04;94502.59;;;28.27;36.37
20009;BME280;10165;42.662;23.260;2023-07-09T13:28:54;94517.34;;;27.39;36.33
20009;BME280;10165;42.662;23.260;2023-07-09T13:31:21;94508.66;;;27.53;36.25
20009;BME280;10165;42.662;23.260;2023-07-09T13:33:53;94510.00;;;27.36;36.34
20009;BME280;10165;42.662;23.260;2023-07-09T13:36:21;94503.31;;;27.84;35.49
20009;BME280;10165;42.662;23.260;2023-07-09T13:38:47;94500.84;;;27.64;35.38
20009;BME280;10165;42.662;23.260;2023-07-09T13:41:17;94508.78;;;27.37;35.25
20009;BME280;10165;42.662;23.260;2023-07-09T13:43:46;94492.69;;;27.26;35.85
20009;BME280;10165;42.662;23.260;2023-07-09T13:46:14;94500.78;;;27.55;35.09